Time;durP1;ratioP1;P1;durP2;ratioP2;P2;SDS_P1;SDS_P2;PMS_P1;PMS_P2;Temp;Humidity;BMP_temperature;BMP_pressure;BME280_temperature;BME280_humidity;BME280_pressure;Samples;Min_cycle;Max_cycle;Signal;HPM_P1;HPM_P2
2020/12/05 00:01:54;;;;;;;37.57;16.93;;;1.10;99.90;;;;;;5009457;28;20437;-62
2020/12/05 00:04:19;;;;;;;40.80;18.77;;;1.00;99.90;;;;;;5008262;28;20187;-63
2020/12/05 00:06:45;;;;;;;45.13;18.57;;;1.00;99.90;;;;;;5006468;28;20445;-62
2020/12/05 00:09:14;;;;;;;33.47;18.00;;;1.00;99.90;;;;;;5005736;28;20198;-62
2020/12/05 00:11:57;;;;;;;35.67;18.03;;;1.00;99.90;;;;;;5000235;28;20711;-63
2020/12/05 00:14:22;;;;;;;40.30;19.00;;;1.00;99.90;;;;;;5009541;28;20438;-62
2020/12/05 00:16:51;;;;;;;40.70;18.47;;;1.00;99.90;;;;;;5010850;28;20187;-62
2020/12/05 00:19:18;;;;;;;34.73;16.73;;;0.90;99.90;;;;;;5008860;28;20718;-62
2020/12/05 00:21:44;;;;;;;37.30;17.80;;;0.90;99.90;;;;;;5008981;28;20441;-62
2020/12/05 00:24:10;;;;;;;34.27;17.27;;;0.90;99.90;;;;;;5009603;28;20453;-62
2020/12/05 00:26:36;;;;;;;33.43;17.60;;;1.00;99.90;;;;;;5009049;28;20441;-62
2020/12/05 00:29:04;;;;;;;36.60;17.70;;;1.00;99.90;;;;;;5009835;28;20321;-62
2020/12/05 00:31:30;;;;;;;42.83;18.10;;;1.00;99.90;;;;;;5010786;28;20206;-63
2020/12/05 00:33:55;;;;;;;36.67;17.20;;;1.00;99.90;;;;;;5008026;28;20532;-62
2020/12/05 00:36:21;;;;;;;34.57;17.00;;;1.00;99.90;;;;;;5010497;28;20185;-62
2020/12/05 00:38:50;;;;;;;34.10;16.47;;;1.00;99.90;;;;;;5009503;28;20647;-62
2020/12/05 00:41:18;;;;;;;37.40;16.80;;;1.10;99.90;;;;;;5009950;28;20182;-61
2020/12/05 00:43:45;;;;;;;32.97;16.07;;;1.10;99.90;;;;;;5009209;28;20822;-62
2020/12/05 00:46:10;;;;;;;31.23;15.67;;;1.10;99.90;;;;;;5010688;28;20903;-62
2020/12/05 00:48:37;;;;;;;32.37;15.17;;;1.10;99.90;;;;;;4997724;28;20445;-62
2020/12/05 00:51:02;;;;;;;32.13;15.70;;;1.10;99.90;;;;;;5011215;28;20425;-62
2020/12/05 00:53:31;;;;;;;35.83;17.17;;;1.10;99.90;;;;;;4986191;28;20434;-62
2020/12/05 00:55:56;;;;;;;36.50;16.30;;;1.10;99.90;;;;;;5009873;28;20260;-62
2020/12/05 00:58:22;;;;;;;31.60;15.50;;;1.10;99.90;;;;;;5012235;28;20947;-62
2020/12/05 01:00:49;;;;;;;30.33;14.40;;;1.10;99.90;;;;;;5013024;28;20186;-62
2020/12/05 01:03:20;;;;;;;31.63;16.40;;;1.10;99.90;;;;;;5009598;28;20184;-62
2020/12/05 01:05:48;;;;;;;33.90;16.47;;;1.10;99.90;;;;;;5011277;28;20441;-61
2020/12/05 01:08:14;;;;;;;36.23;15.80;;;1.10;99.90;;;;;;5013388;28;20429;-62
2020/12/05 01:10:40;;;;;;;32.10;15.27;;;1.10;99.90;;;;;;5013748;28;20432;-62
2020/12/05 01:13:05;;;;;;;30.43;14.83;;;1.10;99.90;;;;;;5011685;28;20767;-62
2020/12/05 01:15:31;;;;;;;33.13;16.07;;;1.10;99.90;;;;;;5014327;28;20714;-61
2020/12/05 01:17:57;;;;;;;26.37;13.03;;;1.20;99.90;;;;;;5013555;28;20199;-62
2020/12/05 01:20:26;;;;;;;31.73;15.30;;;1.20;99.90;;;;;;5013863;28;20560;-62
2020/12/05 01:22:51;;;;;;;27.97;14.53;;;1.20;99.90;;;;;;5009208;28;20213;-62
2020/12/05 01:25:17;;;;;;;24.77;14.20;;;1.20;99.90;;;;;;5013175;28;20449;-62
2020/12/05 01:27:46;;;;;;;30.83;15.60;;;1.20;99.90;;;;;;5011384;28;20342;-62
2020/12/05 01:30:12;;;;;;;26.47;13.67;;;1.20;99.90;;;;;;5013667;28;20971;-62
2020/12/05 01:32:40;;;;;;;25.93;13.27;;;1.20;99.90;;;;;;5011474;28;20989;-62
2020/12/05 01:35:07;;;;;;;28.00;15.00;;;1.20;99.90;;;;;;5016293;28;20464;-62
2020/12/05 01:37:35;;;;;;;29.30;15.63;;;1.20;99.90;;;;;;5019711;28;20431;-62
2020/12/05 01:40:01;;;;;;;30.60;14.13;;;1.20;99.90;;;;;;5021101;28;20457;-62
2020/12/05 01:42:27;;;;;;;32.80;15.30;;;1.20;99.90;;;;;;5018383;28;20804;-62
2020/12/05 01:44:52;;;;;;;31.57;14.73;;;1.20;99.90;;;;;;5010576;28;20438;-62
2020/12/05 01:47:20;;;;;;;27.73;14.30;;;1.20;99.90;;;;;;5012620;28;20289;-62
2020/12/05 01:49:45;;;;;;;25.13;13.80;;;1.20;99.90;;;;;;5013035;28;20280;-64
2020/12/05 01:52:13;;;;;;;27.73;14.47;;;1.20;99.90;;;;;;5015306;28;20468;-62
2020/12/05 01:54:39;;;;;;;31.77;15.43;;;1.20;99.90;;;;;;5013303;28;20175;-61
2020/12/05 01:57:05;;;;;;;27.30;14.30;;;1.20;99.90;;;;;;5007704;28;20511;-62
2020/12/05 01:59:31;;;;;;;24.30;13.70;;;1.20;99.90;;;;;;5011813;28;20703;-61
2020/12/05 02:02:02;;;;;;;29.53;14.20;;;1.20;99.90;;;;;;5022827;28;20425;-61
2020/12/05 02:04:29;;;;;;;22.80;12.37;;;1.20;99.90;;;;;;5011469;28;20429;-62
2020/12/05 02:07:16;;;;;;;26.10;12.80;;;1.20;99.90;;;;;;5012509;28;20600;-62
2020/12/05 02:09:47;;;;;;;24.43;13.37;;;1.20;99.90;;;;;;5007004;28;20496;-63
2020/12/05 02:12:21;;;;;;;28.80;12.97;;;1.20;99.90;;;;;;5008664;28;20461;-62
2020/12/05 02:14:49;;;;;;;27.80;13.30;;;1.20;99.90;;;;;;5010597;28;20436;-62
2020/12/05 02:17:15;;;;;;;24.23;12.20;;;1.20;99.90;;;;;;5012717;28;20471;-62
2020/12/05 02:19:52;;;;;;;23.53;12.43;;;1.20;99.90;;;;;;5009232;28;20449;-62
2020/12/05 02:22:35;;;;;;;26.40;12.87;;;1.20;99.90;;;;;;5010890;28;20437;-62
2020/12/05 02:25:02;;;;;;;19.30;11.27;;;1.20;99.90;;;;;;5009346;28;20429;-62
2020/12/05 02:27:34;;;;;;;22.57;12.70;;;1.30;99.90;;;;;;5008633;28;20440;-62
2020/12/05 02:30:00;;;;;;;19.40;10.73;;;1.20;99.90;;;;;;5009904;28;20461;-62
2020/12/05 02:32:26;;;;;;;25.40;12.33;;;1.20;99.90;;;;;;5012419;28;20469;-63
2020/12/05 02:34:51;;;;;;;21.90;12.13;;;1.20;99.90;;;;;;5008847;28;20421;-62
2020/12/05 02:37:21;;;;;;;23.13;11.40;;;1.20;99.90;;;;;;5010523;28;20641;-62
2020/12/05 02:39:48;;;;;;;23.23;11.87;;;1.20;99.90;;;;;;5009972;28;20193;-63
2020/12/05 02:42:15;;;;;;;25.03;12.50;;;1.20;99.90;;;;;;5009290;28;20440;-62
2020/12/05 02:44:59;;;;;;;20.47;11.80;;;1.20;99.90;;;;;;5007524;28;20483;-62
2020/12/05 02:47:24;;;;;;;19.77;11.13;;;1.30;99.90;;;;;;5010556;28;20994;-62
2020/12/05 02:49:53;;;;;;;20.10;10.80;;;1.30;99.90;;;;;;5010661;28;20453;-62
2020/12/05 02:52:21;;;;;;;21.13;11.47;;;1.20;99.90;;;;;;5010643;28;20214;-62
2020/12/05 02:54:46;;;;;;;21.97;12.20;;;1.30;99.90;;;;;;5025284;28;20501;-62
2020/12/05 02:57:12;;;;;;;19.43;11.17;;;1.30;99.90;;;;;;5008338;28;20442;-62
2020/12/05 02:59:40;;;;;;;24.53;12.27;;;1.30;99.90;;;;;;5010243;28;20616;-63
2020/12/05 03:02:06;;;;;;;21.97;12.67;;;1.30;99.90;;;;;;5011429;28;20253;-62
2020/12/05 03:04:32;;;;;;;18.90;11.40;;;1.30;99.90;;;;;;5009547;28;20434;-62
2020/12/05 03:06:58;;;;;;;21.37;12.17;;;1.30;99.90;;;;;;5011169;28;20677;-62
2020/12/05 03:09:23;;;;;;;21.30;11.73;;;1.30;99.90;;;;;;5008614;28;20720;-62
2020/12/05 03:11:49;;;;;;;21.63;12.33;;;1.30;99.90;;;;;;5010757;28;20254;-62
2020/12/05 03:14:15;;;;;;;24.50;13.30;;;1.30;99.90;;;;;;5008738;28;20191;-62
2020/12/05 03:16:41;;;;;;;23.03;12.97;;;1.40;99.90;;;;;;4999452;28;20436;-62
2020/12/05 03:19:06;;;;;;;19.50;11.37;;;1.40;99.90;;;;;;5005967;28;20206;-62
2020/12/05 03:21:32;;;;;;;22.33;12.70;;;1.40;99.90;;;;;;5008292;28;20186;-61
2020/12/05 03:23:58;;;;;;;21.10;11.37;;;1.40;99.90;;;;;;5010126;28;20283;-63
2020/12/05 03:26:23;;;;;;;19.67;12.10;;;1.40;99.90;;;;;;5010738;28;20202;-62
2020/12/05 03:28:49;;;;;;;21.57;11.33;;;1.40;99.90;;;;;;5009226;28;20284;-62
2020/12/05 03:31:40;;;;;;;25.53;12.93;;;1.40;99.90;;;;;;5010024;28;20201;-61
2020/12/05 03:34:06;;;;;;;22.47;12.03;;;1.40;99.90;;;;;;5005118;28;20423;-62
2020/12/05 03:36:32;;;;;;;20.70;12.00;;;1.40;99.90;;;;;;5009648;28;20515;-62
2020/12/05 03:39:01;;;;;;;23.90;12.80;;;1.40;99.90;;;;;;5009397;28;20453;-62
2020/12/05 03:41:27;;;;;;;25.30;12.80;;;1.30;99.90;;;;;;5010439;28;20506;-62
2020/12/05 03:43:53;;;;;;;25.17;12.80;;;1.30;99.90;;;;;;5004770;28;20569;-62
2020/12/05 03:46:19;;;;;;;23.30;12.17;;;1.30;99.90;;;;;;5008285;28;20482;-62
2020/12/05 03:48:45;;;;;;;24.97;12.87;;;1.30;99.90;;;;;;5009417;28;20462;-62
2020/12/05 03:51:10;;;;;;;27.17;13.47;;;1.30;99.90;;;;;;5009632;28;20220;-62
2020/12/05 03:53:36;;;;;;;28.40;12.87;;;1.30;99.90;;;;;;5010239;28;20221;-62
2020/12/05 03:56:02;;;;;;;21.50;11.57;;;1.30;99.90;;;;;;5015346;28;20202;-62
2020/12/05 03:58:28;;;;;;;21.43;12.30;;;1.30;99.90;;;;;;5007448;28;20441;-62
2020/12/05 04:00:53;;;;;;;24.17;13.20;;;1.30;99.90;;;;;;5006161;28;20324;-62
2020/12/05 04:03:19;;;;;;;21.90;12.87;;;1.30;99.90;;;;;;5001962;28;20261;-62
2020/12/05 04:05:44;;;;;;;24.60;12.83;;;1.30;99.90;;;;;;5007860;28;20202;-62
2020/12/05 04:08:10;;;;;;;24.73;12.30;;;1.30;99.90;;;;;;5009661;28;20182;-62
2020/12/05 04:10:36;;;;;;;21.13;11.50;;;1.30;99.90;;;;;;5009803;28;20235;-62
2020/12/05 04:13:01;;;;;;;23.40;12.30;;;1.30;99.90;;;;;;5007341;28;20764;-62
2020/12/05 04:15:27;;;;;;;27.50;14.00;;;1.30;99.90;;;;;;5009030;28;20259;-61
2020/12/05 04:17:53;;;;;;;22.07;12.90;;;1.30;99.90;;;;;;5009581;28;20194;-62
2020/12/05 04:20:19;;;;;;;26.27;12.97;;;1.30;99.90;;;;;;5008584;28;20277;-63
2020/12/05 04:22:44;;;;;;;19.10;10.30;;;1.30;99.90;;;;;;5004002;28;20194;-62
2020/12/05 04:25:10;;;;;;;19.50;9.77;;;1.30;99.90;;;;;;5000881;28;20200;-62
2020/12/05 04:27:36;;;;;;;19.03;9.60;;;1.30;99.90;;;;;;5005825;28;20190;-62
2020/12/05 04:30:03;;;;;;;14.80;9.03;;;1.30;99.90;;;;;;5001823;28;20460;-62
2020/12/05 04:32:28;;;;;;;15.53;9.50;;;1.40;99.90;;;;;;5008244;28;20200;-62
2020/12/05 04:34:56;;;;;;;15.50;9.53;;;1.40;99.90;;;;;;5009563;28;20813;-63
2020/12/05 04:37:22;;;;;;;16.10;8.27;;;1.40;99.90;;;;;;5011068;28;20256;-63
2020/12/05 04:39:48;;;;;;;15.93;8.73;;;1.40;99.90;;;;;;5008004;28;20461;-62
2020/12/05 04:42:15;;;;;;;14.83;9.53;;;1.40;99.90;;;;;;5013568;28;20433;-62
2020/12/05 04:44:41;;;;;;;14.10;8.63;;;1.30;99.90;;;;;;5010492;28;20570;-63
2020/12/05 04:47:09;;;;;;;13.10;8.27;;;1.30;99.90;;;;;;5012894;28;20510;-62
2020/12/05 04:49:36;;;;;;;13.20;8.50;;;1.30;99.90;;;;;;5009970;28;20213;-62
2020/12/05 04:52:19;;;;;;;13.43;7.90;;;1.30;99.90;;;;;;5011540;28;20486;-63
2020/12/05 04:54:50;;;;;;;16.57;9.70;;;1.30;99.90;;;;;;5011639;28;20437;-62
2020/12/05 04:57:21;;;;;;;16.67;8.67;;;1.40;99.90;;;;;;5011166;28;20429;-63
2020/12/05 04:59:48;;;;;;;13.70;8.77;;;1.40;99.90;;;;;;5011328;28;20539;-62
2020/12/05 05:02:18;;;;;;;11.50;7.40;;;1.30;99.90;;;;;;5011088;28;20433;-62
2020/12/05 05:04:46;;;;;;;11.30;7.60;;;1.30;99.90;;;;;;5012103;28;20452;-63
2020/12/05 05:07:11;;;;;;;10.33;7.07;;;1.30;99.90;;;;;;5008953;28;20441;-62
2020/12/05 05:10:01;;;;;;;12.50;8.20;;;1.30;99.90;;;;;;5009238;28;21028;-62
2020/12/05 05:12:35;;;;;;;11.40;7.10;;;1.30;99.90;;;;;;5008370;28;20234;-63
2020/12/05 05:15:01;;;;;;;12.13;7.80;;;1.30;99.90;;;;;;5013911;28;20427;-62
2020/12/05 05:17:27;;;;;;;14.90;9.10;;;1.20;99.90;;;;;;5011223;28;20430;-61
2020/12/05 05:19:53;;;;;;;13.30;8.80;;;1.20;99.90;;;;;;5004528;28;20475;-62
2020/12/05 05:22:22;;;;;;;14.30;8.83;;;1.10;99.90;;;;;;4996728;28;20190;-62
2020/12/05 05:25:05;;;;;;;12.00;8.40;;;1.10;99.90;;;;;;5011842;28;20177;-62
2020/12/05 05:27:31;;;;;;;14.10;8.63;;;1.10;99.90;;;;;;5009095;28;20428;-62
2020/12/05 05:30:13;;;;;;;16.20;9.67;;;1.20;99.90;;;;;;5009606;28;20850;-62
2020/12/05 05:32:48;;;;;;;18.30;9.97;;;1.20;99.90;;;;;;5006442;28;20511;-62
2020/12/05 05:35:15;;;;;;;19.20;10.30;;;1.20;99.90;;;;;;5008171;28;20487;-62
2020/12/05 05:37:42;;;;;;;17.70;10.60;;;1.20;99.90;;;;;;5006710;28;20432;-62
2020/12/05 05:40:11;;;;;;;20.10;10.43;;;1.20;99.90;;;;;;5001940;28;20524;-62
2020/12/05 05:42:39;;;;;;;21.10;11.50;;;1.10;99.90;;;;;;5002484;28;20468;-63
2020/12/05 05:45:21;;;;;;;17.73;9.77;;;1.10;99.90;;;;;;5011118;28;20425;-62
2020/12/05 05:47:50;;;;;;;27.60;15.23;;;1.10;99.90;;;;;;5006979;28;21068;-62
2020/12/05 05:50:27;;;;;;;23.40;11.70;;;1.10;99.90;;;;;;5008066;28;20545;-62
2020/12/05 05:53:00;;;;;;;17.10;10.40;;;1.10;99.90;;;;;;5010337;28;20464;-63
2020/12/05 05:55:46;;;;;;;16.60;9.70;;;1.10;99.90;;;;;;5052240;22;20490;-53
2020/12/05 05:58:13;;;;;;;17.40;9.20;;;1.10;99.90;;;;;;5043274;28;20427;-54
2020/12/05 06:00:43;;;;;;;15.43;8.63;;;1.10;99.90;;;;;;5042559;28;20923;-54
2020/12/05 06:03:16;;;;;;;13.97;8.63;;;1.10;99.90;;;;;;5045953;28;20444;-52
2020/12/05 06:05:44;;;;;;;16.47;9.87;;;1.10;99.90;;;;;;5039414;28;20577;-54
2020/12/05 06:08:23;;;;;;;16.93;10.03;;;1.10;99.90;;;;;;5042299;28;20926;-55
2020/12/05 06:11:05;;;;;;;22.27;10.73;;;1.20;99.90;;;;;;5044550;28;20435;-53
2020/12/05 06:13:32;;;;;;;20.17;11.43;;;1.20;99.90;;;;;;5044097;28;20467;-57
2020/12/05 06:16:00;;;;;;;16.57;9.77;;;1.20;99.90;;;;;;5047092;28;20444;-54
2020/12/05 06:18:26;;;;;;;17.53;9.33;;;1.20;99.90;;;;;;5043245;28;20521;-53
2020/12/05 06:20:52;;;;;;;16.50;9.07;;;1.20;99.90;;;;;;5042430;28;20436;-55
2020/12/05 06:23:37;;;;;;;17.80;9.73;;;1.20;99.90;;;;;;5045424;28;20435;-53
2020/12/05 06:26:07;;;;;;;12.93;7.70;;;1.10;99.90;;;;;;5049566;28;21133;-53
2020/12/05 06:28:33;;;;;;;16.07;7.60;;;1.10;99.90;;;;;;5035787;28;20440;-53
2020/12/05 06:30:59;;;;;;;12.73;7.23;;;1.20;99.90;;;;;;5043296;28;20566;-55
2020/12/05 06:33:45;;;;;;;13.50;7.50;;;1.20;99.90;;;;;;5034571;28;20470;-54
2020/12/05 06:36:28;;;;;;;14.40;8.57;;;1.20;99.90;;;;;;5039730;28;20220;-53
2020/12/05 06:39:06;;;;;;;13.90;7.50;;;1.20;99.90;;;;;;5039825;28;20889;-53
2020/12/05 06:41:36;;;;;;;16.57;8.50;;;1.10;99.90;;;;;;5041463;28;20514;-53
2020/12/05 06:44:20;;;;;;;17.37;8.30;;;1.10;99.90;;;;;;5041842;28;21048;-56
2020/12/05 06:46:59;;;;;;;13.73;7.10;;;1.10;99.90;;;;;;5046557;28;20424;-54
2020/12/05 06:52:24;;;;;;;20.07;8.33;;;1.10;99.90;;;;;;5042604;28;20597;-53
2020/12/05 06:55:03;;;;;;;17.20;7.87;;;1.10;99.90;;;;;;5043983;28;20466;-52
2020/12/05 06:57:31;;;;;;;15.93;8.23;;;1.00;99.90;;;;;;5040241;28;20442;-53
2020/12/05 07:00:12;;;;;;;16.33;8.73;;;1.00;99.90;;;;;;5046945;28;20478;-53
2020/12/05 07:02:37;;;;;;;12.90;6.80;;;1.00;99.90;;;;;;5046496;28;20481;-52
2020/12/05 07:05:18;;;;;;;13.93;7.27;;;1.00;99.90;;;;;;5046087;28;20455;-53
2020/12/05 07:07:54;;;;;;;17.93;7.50;;;1.00;99.90;;;;;;5044820;28;20702;-54
2020/12/05 07:10:22;;;;;;;12.67;6.73;;;1.00;99.90;;;;;;5047766;28;20874;-54
2020/12/05 07:12:48;;;;;;;11.70;6.80;;;1.00;99.90;;;;;;5046687;28;20478;-55
2020/12/05 07:15:29;;;;;;;13.90;6.83;;;1.00;99.90;;;;;;5044824;28;20462;-55
2020/12/05 07:17:56;;;;;;;12.77;6.90;;;1.00;99.90;;;;;;5044122;28;20259;-57
2020/12/05 07:20:22;;;;;;;18.30;7.70;;;1.00;99.90;;;;;;5042964;28;20493;-56
2020/12/05 07:22:50;;;;;;;19.07;9.47;;;1.00;99.90;;;;;;5038447;28;20447;-55
2020/12/05 07:25:15;;;;;;;22.70;11.10;;;1.10;99.90;;;;;;5045254;28;20546;-55
2020/12/05 07:27:42;;;;;;;20.10;10.77;;;1.10;99.90;;;;;;5041960;28;20597;-56
2020/12/05 07:30:08;;;;;;;20.70;9.43;;;1.10;99.90;;;;;;5043972;28;20184;-53
2020/12/05 07:32:37;;;;;;;17.37;8.20;;;1.10;99.90;;;;;;5045270;28;20473;-54
2020/12/05 07:35:06;;;;;;;14.63;7.63;;;1.10;99.90;;;;;;5047129;28;20457;-54
2020/12/05 07:37:33;;;;;;;17.73;7.80;;;1.20;99.90;;;;;;5046150;28;20442;-56
2020/12/05 07:40:00;;;;;;;13.43;7.50;;;1.20;99.90;;;;;;5039398;28;20423;-53
2020/12/05 07:42:32;;;;;;;15.80;8.60;;;1.20;99.90;;;;;;5046481;28;20486;-53
2020/12/05 07:45:08;;;;;;;19.20;11.10;;;1.30;99.90;;;;;;5042138;28;20436;-54
2020/12/05 07:47:34;;;;;;;16.53;9.27;;;1.30;99.90;;;;;;5043540;28;20450;-54
2020/12/05 07:50:01;;;;;;;19.33;9.90;;;1.30;99.90;;;;;;5042610;28;20512;-55
2020/12/05 07:52:27;;;;;;;17.70;9.30;;;1.30;99.90;;;;;;5043593;28;20720;-56
2020/12/05 07:54:57;;;;;;;18.40;9.63;;;1.30;99.90;;;;;;5040370;28;20480;-55
2020/12/05 07:57:24;;;;;;;17.60;9.67;;;1.30;99.90;;;;;;5042435;28;20431;-55
2020/12/05 07:59:52;;;;;;;20.07;9.30;;;1.40;99.90;;;;;;5040089;28;20477;-54
2020/12/05 08:02:35;;;;;;;14.93;9.00;;;1.40;99.90;;;;;;5042321;28;20431;-55
2020/12/05 08:05:04;;;;;;;24.30;11.40;;;1.40;99.90;;;;;;5052644;28;20465;-54
2020/12/05 08:07:37;;;;;;;23.40;11.50;;;1.40;99.90;;;;;;5042346;28;20450;-54
2020/12/05 08:10:08;;;;;;;22.03;9.17;;;1.40;99.90;;;;;;5038988;28;20438;-55
2020/12/05 08:12:43;;;;;;;18.23;8.47;;;1.40;99.90;;;;;;5043330;28;20469;-54
2020/12/05 08:15:10;;;;;;;22.23;10.13;;;1.50;99.90;;;;;;5043874;28;20451;-54
2020/12/05 08:17:37;;;;;;;34.50;15.60;;;1.50;99.90;;;;;;5044579;28;20424;-53
2020/12/05 08:20:05;;;;;;;39.10;17.00;;;1.50;99.90;;;;;;5042390;28;20821;-54
2020/12/05 08:22:31;;;;;;;50.03;20.60;;;1.50;99.90;;;;;;5043682;28;20451;-55
2020/12/05 08:24:58;;;;;;;45.17;17.60;;;1.50;99.90;;;;;;5042488;28;20464;-55
2020/12/05 08:27:26;;;;;;;32.03;13.80;;;1.40;99.90;;;;;;5040502;28;20206;-55
2020/12/05 08:29:52;;;;;;;21.40;10.50;;;1.40;99.90;;;;;;5059260;28;20808;-54
2020/12/05 08:32:20;;;;;;;19.87;9.57;;;1.40;99.90;;;;;;5035594;28;20585;-54
2020/12/05 08:34:46;;;;;;;24.53;12.40;;;1.40;99.90;;;;;;5040121;28;20536;-57
2020/12/05 08:37:26;;;;;;;18.00;9.20;;;1.40;99.90;;;;;;5036377;28;20594;-54
2020/12/05 08:39:53;;;;;;;16.23;8.50;;;1.40;99.90;;;;;;5038604;28;20188;-56
2020/12/05 08:42:19;;;;;;;19.67;9.50;;;1.40;99.90;;;;;;5041852;28;20501;-54
2020/12/05 08:44:47;;;;;;;15.60;9.27;;;1.40;99.90;;;;;;5047873;28;20515;-55
2020/12/05 08:47:13;;;;;;;17.90;9.50;;;1.40;99.90;;;;;;5039402;28;20453;-54
2020/12/05 08:49:41;;;;;;;19.00;9.10;;;1.50;99.90;;;;;;5043704;28;20674;-55
2020/12/05 08:52:08;;;;;;;19.17;9.17;;;1.50;99.90;;;;;;5051958;28;20786;-56
2020/12/05 08:54:51;;;;;;;16.30;8.87;;;1.50;99.90;;;;;;5046219;28;20538;-57
2020/12/05 08:57:18;;;;;;;16.27;8.93;;;1.50;99.90;;;;;;5039491;28;20459;-56
2020/12/05 08:59:45;;;;;;;19.50;9.27;;;1.60;99.90;;;;;;5042912;28;20427;-56
2020/12/05 09:02:12;;;;;;;22.37;8.97;;;1.60;99.90;;;;;;5043232;28;20545;-55
2020/12/05 09:04:38;;;;;;;21.37;8.87;;;1.60;99.90;;;;;;5040208;28;20558;-54
2020/12/05 09:07:11;;;;;;;23.37;10.73;;;1.70;99.90;;;;;;5031779;28;20458;-54
2020/12/05 09:09:38;;;;;;;21.17;8.77;;;1.70;99.90;;;;;;5041748;28;20513;-56
2020/12/05 09:12:15;;;;;;;17.00;8.67;;;1.70;99.90;;;;;;5039138;28;20451;-53
2020/12/05 09:14:42;;;;;;;13.73;6.47;;;1.70;99.90;;;;;;5039294;28;20541;-55
2020/12/05 09:17:30;;;;;;;20.13;8.13;;;1.70;99.90;;;;;;5046202;28;20445;-52
2020/12/05 09:20:09;;;;;;;12.77;6.23;;;1.70;99.90;;;;;;5040582;28;20435;-53
2020/12/05 09:22:35;;;;;;;13.07;6.57;;;1.70;99.90;;;;;;5042730;28;20438;-58
2020/12/05 09:25:02;;;;;;;12.67;6.50;;;1.80;99.90;;;;;;5049720;28;20439;-55
2020/12/05 09:27:41;;;;;;;13.60;6.70;;;1.70;99.90;;;;;;5038769;28;20816;-56
2020/12/05 09:30:13;;;;;;;12.17;6.60;;;1.80;99.90;;;;;;5048412;28;20439;-55
2020/12/05 09:32:40;;;;;;;12.60;6.40;;;1.80;99.90;;;;;;5046054;28;20933;-54
2020/12/05 09:35:07;;;;;;;10.03;5.93;;;1.80;99.90;;;;;;5043795;28;20471;-55
2020/12/05 09:37:33;;;;;;;11.20;6.10;;;1.90;99.90;;;;;;5043667;28;20444;-54
2020/12/05 09:39:59;;;;;;;9.67;5.90;;;1.90;99.90;;;;;;5040179;28;20503;-55
2020/12/05 09:42:26;;;;;;;10.53;6.33;;;1.90;99.90;;;;;;5040772;28;20441;-54
2020/12/05 09:44:52;;;;;;;15.00;8.20;;;2.00;99.90;;;;;;5046528;28;20710;-54
2020/12/05 09:47:18;;;;;;;17.17;8.67;;;2.00;99.90;;;;;;5041631;28;20431;-56
2020/12/05 09:49:44;;;;;;;17.27;8.57;;;2.00;99.90;;;;;;5035734;28;20218;-56
2020/12/05 09:52:10;;;;;;;19.43;9.20;;;2.00;99.90;;;;;;5032341;28;20596;-58
2020/12/05 09:54:36;;;;;;;20.00;10.30;;;2.00;99.90;;;;;;5039870;28;20297;-56
2020/12/05 09:57:06;;;;;;;18.20;9.40;;;1.90;99.90;;;;;;5033993;28;20525;-56
2020/12/05 09:59:32;;;;;;;20.30;9.53;;;1.90;99.90;;;;;;5036954;28;20480;-55
2020/12/05 10:02:01;;;;;;;24.40;10.80;;;1.90;99.90;;;;;;5035430;28;20552;-55
2020/12/05 10:04:27;;;;;;;24.33;9.90;;;1.80;99.90;;;;;;5037080;28;20547;-55
2020/12/05 10:06:53;;;;;;;17.50;9.23;;;1.80;99.90;;;;;;5038597;28;20453;-55
2020/12/05 10:09:19;;;;;;;20.83;9.07;;;1.80;99.90;;;;;;5020991;28;20194;-55
2020/12/05 10:11:44;;;;;;;24.70;9.80;;;1.80;99.90;;;;;;5036024;28;20232;-55
2020/12/05 10:14:10;;;;;;;24.67;10.27;;;1.80;99.90;;;;;;5036876;28;20511;-52
2020/12/05 10:16:37;;;;;;;23.30;10.07;;;1.80;99.90;;;;;;5041667;28;20221;-57
2020/12/05 10:19:02;;;;;;;23.20;11.20;;;1.80;99.90;;;;;;5043508;28;20444;-57
2020/12/05 10:21:28;;;;;;;20.70;10.30;;;1.70;99.90;;;;;;5039610;28;20797;-57
2020/12/05 10:23:54;;;;;;;33.10;11.43;;;1.70;99.90;;;;;;5037402;28;20441;-57
2020/12/05 10:26:20;;;;;;;25.97;11.33;;;1.70;99.90;;;;;;5038794;28;20527;-54
2020/12/05 10:28:46;;;;;;;25.53;11.60;;;1.70;99.90;;;;;;5040107;28;20208;-55
2020/12/05 10:31:11;;;;;;;28.47;11.70;;;1.70;99.90;;;;;;5043652;28;20175;-55
2020/12/05 10:33:38;;;;;;;30.37;11.70;;;1.70;99.90;;;;;;5040140;28;20568;-55
2020/12/05 10:36:03;;;;;;;24.77;10.97;;;1.70;99.90;;;;;;5020453;28;20469;-56
2020/12/05 10:38:29;;;;;;;26.70;11.10;;;1.70;99.90;;;;;;5043249;28;20658;-55
2020/12/05 10:40:55;;;;;;;22.60;10.20;;;1.70;99.90;;;;;;5038263;28;20436;-55
2020/12/05 10:43:21;;;;;;;24.33;11.30;;;1.70;99.90;;;;;;5045223;28;20565;-55
2020/12/05 10:45:47;;;;;;;23.83;10.93;;;1.70;99.90;;;;;;5046529;28;20563;-56
2020/12/05 10:48:14;;;;;;;23.73;10.87;;;1.60;99.90;;;;;;5034496;28;20966;-56
2020/12/05 10:50:39;;;;;;;19.63;9.27;;;1.60;99.90;;;;;;5033560;28;20450;-57
2020/12/05 10:53:05;;;;;;;21.43;9.40;;;1.70;99.90;;;;;;5042967;28;20453;-57
2020/12/05 10:55:30;;;;;;;19.17;10.10;;;1.70;99.90;;;;;;5029499;28;20218;-56
2020/12/05 10:57:56;;;;;;;21.13;9.70;;;1.70;99.90;;;;;;5041895;28;20820;-55
2020/12/05 11:00:23;;;;;;;25.10;10.00;;;1.70;99.90;;;;;;5046376;28;20915;-55
2020/12/05 11:02:48;;;;;;;17.23;9.00;;;1.70;99.90;;;;;;5047367;28;20218;-57
2020/12/05 11:05:14;;;;;;;20.83;9.90;;;1.80;99.90;;;;;;5038698;28;20487;-55
2020/12/05 11:07:39;;;;;;;16.13;8.57;;;1.80;99.90;;;;;;5048930;28;20177;-56
2020/12/05 11:10:05;;;;;;;13.30;7.70;;;1.80;99.90;;;;;;5049327;28;20277;-57
2020/12/05 11:12:31;;;;;;;18.97;8.63;;;1.80;99.90;;;;;;5043558;28;20209;-55
2020/12/05 11:14:57;;;;;;;13.90;6.80;;;1.80;99.90;;;;;;5041573;28;20227;-55
2020/12/05 11:17:22;;;;;;;13.87;6.83;;;1.80;99.90;;;;;;5046885;28;20966;-56
2020/12/05 11:19:48;;;;;;;10.77;5.80;;;1.80;99.90;;;;;;5048155;28;20435;-57
2020/12/05 11:22:14;;;;;;;12.00;6.83;;;1.80;99.90;;;;;;5044293;28;20184;-56
2020/12/05 11:24:39;;;;;;;11.13;6.80;;;1.80;99.90;;;;;;5037425;28;20197;-57
2020/12/05 11:27:05;;;;;;;12.10;6.60;;;1.80;99.90;;;;;;5045304;28;20208;-55
2020/12/05 11:29:31;;;;;;;13.93;5.50;;;1.80;99.90;;;;;;5046912;28;20201;-55
2020/12/05 11:31:57;;;;;;;11.20;6.20;;;1.80;99.90;;;;;;5045781;28;20296;-56
2020/12/05 11:34:22;;;;;;;12.00;6.77;;;1.90;99.90;;;;;;5047062;28;20689;-56
2020/12/05 11:36:48;;;;;;;13.17;7.43;;;1.90;99.90;;;;;;5045539;28;20442;-55
2020/12/05 11:39:13;;;;;;;14.90;8.40;;;1.90;99.90;;;;;;5044434;28;20238;-55
2020/12/05 11:41:39;;;;;;;16.57;9.00;;;1.90;99.90;;;;;;5047541;28;20205;-56
2020/12/05 11:44:06;;;;;;;12.63;6.30;;;1.90;99.90;;;;;;5047550;28;20304;-56
2020/12/05 11:46:32;;;;;;;10.77;6.07;;;1.90;99.90;;;;;;5044741;28;20181;-57
2020/12/05 11:48:58;;;;;;;11.13;6.47;;;1.90;99.90;;;;;;5049134;28;20427;-57
2020/12/05 11:51:28;;;;;;;9.63;5.97;;;1.90;99.90;;;;;;5048235;28;20840;-55
2020/12/05 11:53:54;;;;;;;10.77;6.20;;;1.90;99.90;;;;;;5040481;28;20515;-56
2020/12/05 11:56:21;;;;;;;13.47;6.23;;;1.90;99.90;;;;;;5043453;28;20852;-55
2020/12/05 11:58:47;;;;;;;13.30;6.97;;;1.90;99.90;;;;;;5043316;28;20460;-56
2020/12/05 12:01:13;;;;;;;10.20;5.70;;;1.90;99.90;;;;;;5044966;28;20429;-56
2020/12/05 12:03:40;;;;;;;8.50;5.23;;;1.90;99.90;;;;;;5044307;28;20616;-55
2020/12/05 12:06:12;;;;;;;10.53;5.40;;;1.90;99.90;;;;;;5047720;28;20209;-56
2020/12/05 12:08:38;;;;;;;9.80;5.70;;;1.90;99.90;;;;;;5053061;28;20431;-55
2020/12/05 12:11:03;;;;;;;11.40;6.20;;;1.80;99.90;;;;;;5045099;28;20452;-54
2020/12/05 12:13:29;;;;;;;11.10;6.13;;;1.80;99.90;;;;;;5044619;28;20788;-55
2020/12/05 12:15:55;;;;;;;11.50;6.70;;;1.80;99.90;;;;;;5048911;28;20240;-54
2020/12/05 12:18:20;;;;;;;10.80;4.87;;;1.80;99.90;;;;;;5045086;28;20175;-54
2020/12/05 12:20:46;;;;;;;9.60;5.77;;;1.80;99.90;;;;;;5043683;28;20177;-57
2020/12/05 12:23:11;;;;;;;9.20;5.10;;;1.80;99.90;;;;;;5034500;28;20183;-56
2020/12/05 12:25:37;;;;;;;11.23;6.27;;;1.80;99.90;;;;;;5043418;28;20201;-56
2020/12/05 12:28:03;;;;;;;9.80;5.77;;;1.80;99.90;;;;;;5042507;28;20669;-57
2020/12/05 12:30:28;;;;;;;10.50;6.03;;;1.80;99.90;;;;;;5045174;28;20301;-55
2020/12/05 12:32:54;;;;;;;13.60;6.73;;;1.90;99.90;;;;;;5043605;28;20312;-56
2020/12/05 12:35:20;;;;;;;11.27;6.43;;;1.90;99.90;;;;;;5043599;28;20197;-55
2020/12/05 12:37:45;;;;;;;10.30;6.00;;;1.90;99.90;;;;;;5042817;28;20596;-55
2020/12/05 12:40:11;;;;;;;8.70;5.30;;;1.90;99.90;;;;;;5042412;28;20181;-57
2020/12/05 12:42:36;;;;;;;10.00;5.63;;;2.00;99.90;;;;;;5046789;28;20210;-54
2020/12/05 12:45:03;;;;;;;10.13;5.37;;;1.90;99.90;;;;;;5044585;28;20332;-55
2020/12/05 12:49:58;;;;;;;10.43;5.87;;;1.90;99.90;;;;;;5047395;28;20436;-57
2020/12/05 12:52:24;;;;;;;9.40;5.73;;;1.90;99.90;;;;;;5045628;28;20466;-56
2020/12/05 12:54:49;;;;;;;7.33;4.80;;;1.90;99.90;;;;;;5042545;28;20819;-56